Time;durP1;ratioP1;P1;durP2;ratioP2;P2;SDS_P1;SDS_P2;PMS_P1;PMS_P2;Temp;Humidity;BMP_temperature;BMP_pressure;BME280_temperature;BME280_humidity;BME280_pressure;Samples;Min_cycle;Max_cycle;Signal;HPM_P1;HPM_P2
2021/06/30 00:02:18;;;;;;;3.23;1.93;;;16.80;99.90;;;;;;5073214;28;20269;-59
2021/06/30 00:04:44;;;;;;;2.77;1.80;;;16.90;99.90;;;;;;5073503;28;20170;-61
2021/06/30 00:07:10;;;;;;;4.57;2.20;;;16.90;99.90;;;;;;5073390;28;20273;-58
2021/06/30 00:09:36;;;;;;;2.30;1.80;;;16.90;99.90;;;;;;5073480;28;20631;-52
2021/06/30 00:12:03;;;;;;;2.07;1.87;;;16.80;99.90;;;;;;5072626;28;20211;-58
2021/06/30 00:14:29;;;;;;;2.50;2.30;;;16.70;99.90;;;;;;5072498;28;20205;-53
2021/06/30 00:16:55;;;;;;;4.10;2.20;;;16.60;99.90;;;;;;5073409;28;20218;-60
2021/06/30 00:19:21;;;;;;;2.80;1.90;;;16.50;99.90;;;;;;5072550;28;20174;-58
2021/06/30 00:21:47;;;;;;;4.40;2.10;;;16.60;99.90;;;;;;5073074;28;20275;-56
2021/06/30 00:24:13;;;;;;;2.47;2.07;;;16.80;99.90;;;;;;5073226;28;20535;-58
2021/06/30 00:26:39;;;;;;;2.93;2.07;;;16.80;99.90;;;;;;5071614;28;20569;-56
2021/06/30 00:29:06;;;;;;;3.13;2.30;;;16.70;99.90;;;;;;5073347;28;20193;-57
2021/06/30 00:31:32;;;;;;;2.27;2.00;;;16.80;99.90;;;;;;5075615;28;20222;-55
2021/06/30 00:34:02;;;;;;;5.63;2.50;;;16.80;99.90;;;;;;5076574;28;20183;-52
2021/06/30 00:36:29;;;;;;;3.40;2.13;;;16.90;99.90;;;;;;5076532;28;20175;-58
2021/06/30 00:38:55;;;;;;;2.67;2.20;;;16.90;99.90;;;;;;5076631;28;20175;-62
2021/06/30 00:41:21;;;;;;;2.07;1.97;;;16.90;99.90;;;;;;5076349;28;20600;-61
2021/06/30 00:43:46;;;;;;;2.07;1.90;;;17.00;99.90;;;;;;5076540;28;20642;-59
2021/06/30 00:46:12;;;;;;;2.20;2.03;;;17.10;99.90;;;;;;5076662;28;20200;-61
2021/06/30 00:48:39;;;;;;;4.50;2.07;;;17.20;99.90;;;;;;5076353;28;20186;-60
2021/06/30 00:51:05;;;;;;;2.10;2.00;;;17.30;99.90;;;;;;5075674;28;20542;-54
2021/06/30 00:53:31;;;;;;;2.30;2.13;;;17.30;99.90;;;;;;5076443;28;20622;-56
2021/06/30 00:55:56;;;;;;;2.67;2.47;;;17.40;99.90;;;;;;5076124;28;20181;-60
2021/06/30 00:58:22;;;;;;;2.60;2.30;;;17.30;99.90;;;;;;5076447;28;20198;-57
2021/06/30 01:00:49;;;;;;;4.50;2.33;;;17.10;99.90;;;;;;5076683;28;20201;-56
2021/06/30 01:03:15;;;;;;;2.10;2.00;;;16.90;99.90;;;;;;5076049;28;20183;-58
2021/06/30 01:05:41;;;;;;;2.47;2.27;;;16.90;99.90;;;;;;5075790;28;20224;-58
2021/06/30 01:08:07;;;;;;;2.93;2.23;;;16.90;99.90;;;;;;5073662;28;20281;-58
2021/06/30 01:10:32;;;;;;;2.43;2.20;;;17.00;99.90;;;;;;5073953;28;20185;-55
2021/06/30 01:12:58;;;;;;;2.60;2.40;;;17.00;99.90;;;;;;5073149;28;20182;-53
2021/06/30 01:15:23;;;;;;;3.63;2.27;;;17.00;99.90;;;;;;5073081;28;20616;-60
2021/06/30 01:17:52;;;;;;;4.10;2.30;;;17.00;99.90;;;;;;5073815;28;20206;-60
2021/06/30 01:20:18;;;;;;;4.50;2.80;;;16.90;99.90;;;;;;5073653;28;20190;-53
2021/06/30 01:23:01;;;;;;;2.80;2.60;;;16.70;99.90;;;;;;5073652;28;20178;-54
2021/06/30 01:25:27;;;;;;;2.77;2.57;;;16.60;99.90;;;;;;5075807;28;20166;-59
2021/06/30 01:27:53;;;;;;;4.47;2.90;;;16.40;99.90;;;;;;5075841;28;20205;-61
2021/06/30 01:30:18;;;;;;;3.37;2.70;;;16.40;99.90;;;;;;5075732;28;20197;-58
2021/06/30 01:32:44;;;;;;;2.80;2.60;;;16.40;99.90;;;;;;5075774;28;20630;-60
2021/06/30 01:35:17;;;;;;;3.10;2.80;;;16.60;99.90;;;;;;5075851;28;20167;-54
2021/06/30 01:37:47;;;;;;;4.80;2.90;;;16.60;99.90;;;;;;5075801;28;20294;-61
2021/06/30 01:40:14;;;;;;;3.30;3.00;;;16.60;99.90;;;;;;5075844;28;20654;-60
2021/06/30 01:42:43;;;;;;;4.03;2.80;;;16.50;99.90;;;;;;5074921;28;20553;-54
2021/06/30 01:45:09;;;;;;;4.40;3.20;;;16.50;99.90;;;;;;5075516;28;20619;-57
2021/06/30 01:47:34;;;;;;;4.37;2.50;;;16.50;99.90;;;;;;5075530;28;20195;-58
2021/06/30 01:50:00;;;;;;;4.93;2.63;;;17.00;99.90;;;;;;5075456;28;20197;-52
2021/06/30 01:52:29;;;;;;;4.37;2.80;;;16.40;99.90;;;;;;5075012;28;20183;-55
2021/06/30 01:54:57;;;;;;;4.10;3.13;;;16.40;99.90;;;;;;5075330;28;20175;-56
2021/06/30 01:57:23;;;;;;;3.53;3.20;;;16.50;99.90;;;;;;5075415;28;20676;-52
2021/06/30 01:59:49;;;;;;;3.60;3.30;;;16.60;99.90;;;;;;5075217;28;20206;-55
2021/06/30 02:02:14;;;;;;;5.13;2.97;;;16.60;99.90;;;;;;5074738;28;20181;-58
2021/06/30 02:04:41;;;;;;;3.30;3.00;;;16.50;99.90;;;;;;5075186;28;20166;-57
2021/06/30 02:07:07;;;;;;;4.40;3.43;;;16.40;99.90;;;;;;5074753;28;20528;-52
2021/06/30 02:09:33;;;;;;;3.60;3.10;;;16.40;99.90;;;;;;5075252;28;20515;-53
2021/06/30 02:11:59;;;;;;;4.03;2.97;;;16.40;99.90;;;;;;5074986;28;20171;-54
2021/06/30 02:14:25;;;;;;;7.87;3.53;;;16.40;99.90;;;;;;5074879;28;20228;-58
2021/06/30 02:16:51;;;;;;;3.03;2.63;;;16.40;99.90;;;;;;5074891;28;20277;-61
2021/06/30 02:19:17;;;;;;;2.97;2.77;;;16.40;99.90;;;;;;5074900;28;20179;-58
2021/06/30 02:21:43;;;;;;;5.00;3.03;;;16.20;99.90;;;;;;5074725;28;20202;-59
2021/06/30 02:24:09;;;;;;;3.17;2.87;;;16.00;99.90;;;;;;5075313;28;20202;-52
2021/06/30 02:26:35;;;;;;;5.17;2.70;;;16.00;99.90;;;;;;5074757;28;20179;-53
2021/06/30 02:29:02;;;;;;;3.30;3.00;;;16.00;99.90;;;;;;5075055;28;20228;-59
2021/06/30 02:31:28;;;;;;;3.27;2.97;;;15.90;99.90;;;;;;5074370;28;20236;-56
2021/06/30 02:33:53;;;;;;;3.37;3.07;;;15.90;99.90;;;;;;5074311;28;20174;-58
2021/06/30 02:36:20;;;;;;;5.00;3.87;;;16.00;99.90;;;;;;5074984;28;20182;-55
2021/06/30 02:38:46;;;;;;;3.30;3.00;;;15.80;99.90;;;;;;5074828;28;20194;-60
2021/06/30 02:41:12;;;;;;;4.10;3.03;;;15.80;99.90;;;;;;5074557;28;20209;-55
2021/06/30 02:43:37;;;;;;;4.10;3.23;;;15.70;99.90;;;;;;5074499;28;20520;-53
2021/06/30 02:46:03;;;;;;;3.63;3.30;;;15.70;99.90;;;;;;5072976;28;20175;-58
2021/06/30 02:48:29;;;;;;;4.13;3.40;;;15.70;99.90;;;;;;5074098;28;20194;-51
2021/06/30 02:50:55;;;;;;;4.23;3.50;;;15.60;99.90;;;;;;5074289;28;20259;-53
2021/06/30 02:53:20;;;;;;;3.80;3.40;;;15.50;99.90;;;;;;5074148;28;20213;-60
2021/06/30 02:55:46;;;;;;;3.93;3.60;;;15.50;99.90;;;;;;5074156;28;20174;-60
2021/06/30 02:58:11;;;;;;;4.53;3.57;;;15.50;99.90;;;;;;5073158;28;20203;-58
2021/06/30 03:00:37;;;;;;;4.87;3.77;;;15.50;99.90;;;;;;5073890;28;20210;-52
2021/06/30 03:03:03;;;;;;;4.43;4.03;;;15.50;99.90;;;;;;5073016;28;20182;-56
2021/06/30 03:05:28;;;;;;;4.83;4.03;;;15.60;99.90;;;;;;5072614;28;20225;-61
2021/06/30 03:07:54;;;;;;;4.10;3.70;;;15.60;99.90;;;;;;5073678;28;20686;-58
2021/06/30 03:10:20;;;;;;;6.13;4.50;;;15.60;99.90;;;;;;5073175;28;20171;-61
2021/06/30 03:12:46;;;;;;;4.77;3.73;;;15.60;99.90;;;;;;5072607;28;20177;-57
2021/06/30 03:15:13;;;;;;;3.90;3.57;;;15.60;99.90;;;;;;5074202;28;20178;-59
2021/06/30 03:17:38;;;;;;;3.93;3.63;;;15.70;99.90;;;;;;5073968;28;20201;-53
2021/06/30 03:20:06;;;;;;;3.80;3.37;;;15.80;99.90;;;;;;5073847;28;20195;-57
2021/06/30 03:22:32;;;;;;;3.97;3.67;;;15.80;99.90;;;;;;5073770;28;20225;-53
2021/06/30 03:24:58;;;;;;;4.10;3.70;;;15.70;99.90;;;;;;5073929;28;20170;-56
2021/06/30 03:27:24;;;;;;;7.47;3.70;;;15.80;99.90;;;;;;5073898;28;20194;-58
2021/06/30 03:29:49;;;;;;;3.87;3.47;;;15.90;99.90;;;;;;5073966;28;20205;-56
2021/06/30 03:32:15;;;;;;;6.43;3.57;;;15.90;99.90;;;;;;5073950;28;20167;-59
2021/06/30 03:34:41;;;;;;;6.00;4.00;;;16.00;99.90;;;;;;5073748;28;20630;-55
2021/06/30 03:37:06;;;;;;;7.40;3.70;;;16.00;99.90;;;;;;5073605;28;20205;-59
2021/06/30 03:39:32;;;;;;;3.70;3.40;;;16.00;99.90;;;;;;5074029;28;20167;-52
2021/06/30 03:41:57;;;;;;;5.43;3.87;;;15.90;99.90;;;;;;5072293;28;20186;-59
2021/06/30 03:44:23;;;;;;;4.03;3.63;;;16.10;99.90;;;;;;5073860;28;20178;-61
2021/06/30 03:46:50;;;;;;;3.97;3.27;;;16.20;99.90;;;;;;5073605;28;20190;-59
2021/06/30 03:49:16;;;;;;;3.87;3.50;;;16.30;99.90;;;;;;5073690;28;20536;-59
2021/06/30 03:51:42;;;;;;;3.93;3.40;;;16.50;99.90;;;;;;5073766;28;20177;-61
2021/06/30 03:54:09;;;;;;;5.03;4.03;;;16.60;99.90;;;;;;5073709;28;20174;-58
2021/06/30 03:56:35;;;;;;;4.33;3.73;;;16.70;99.90;;;;;;5073831;28;20182;-60
2021/06/30 03:59:00;;;;;;;4.10;3.70;;;16.70;99.90;;;;;;5073806;28;20588;-54
2021/06/30 04:01:26;;;;;;;4.20;3.80;;;16.60;99.90;;;;;;5073575;28;20244;-59
2021/06/30 04:03:56;;;;;;;4.13;3.30;;;16.60;99.90;;;;;;5073376;28;20182;-60
2021/06/30 04:06:22;;;;;;;3.87;3.47;;;16.60;99.90;;;;;;5075954;28;20162;-59
2021/06/30 04:08:48;;;;;;;6.27;3.30;;;17.90;99.90;;;;;;5077409;28;20200;-60
2021/06/30 04:11:14;;;;;;;6.37;3.57;;;16.60;99.90;;;;;;5077341;28;20174;-60
2021/06/30 04:13:40;;;;;;;6.00;3.70;;;16.60;99.90;;;;;;5077449;28;20175;-61
2021/06/30 04:16:05;;;;;;;3.50;3.20;;;16.50;99.90;;;;;;5077337;28;20637;-59
2021/06/30 04:18:32;;;;;;;4.13;3.73;;;16.40;99.90;;;;;;5077239;28;20193;-59
2021/06/30 04:20:58;;;;;;;5.97;3.47;;;16.30;99.90;;;;;;5077279;28;20207;-61
2021/06/30 04:23:23;;;;;;;6.30;3.50;;;16.20;99.90;;;;;;5077045;28;20181;-53
2021/06/30 04:25:49;;;;;;;4.70;3.73;;;16.20;99.90;;;;;;5077131;28;20250;-54
2021/06/30 04:28:15;;;;;;;4.73;3.47;;;16.20;99.90;;;;;;5076920;28;20194;-55
2021/06/30 04:30:41;;;;;;;4.00;3.40;;;16.10;99.90;;;;;;5076822;28;20186;-51
2021/06/30 04:33:07;;;;;;;5.07;3.83;;;16.00;99.90;;;;;;5077150;28;20167;-57
2021/06/30 04:35:33;;;;;;;5.37;3.80;;;16.00;99.90;;;;;;5076761;28;20258;-57
2021/06/30 04:38:00;;;;;;;4.40;3.93;;;15.90;99.90;;;;;;5076860;28;20281;-59
2021/06/30 04:40:26;;;;;;;4.27;3.93;;;16.00;99.90;;;;;;5076555;28;20209;-56
2021/06/30 04:42:51;;;;;;;5.33;3.63;;;16.10;99.90;;;;;;5076668;28;20178;-55
2021/06/30 04:45:17;;;;;;;4.20;3.73;;;16.20;99.90;;;;;;5076991;28;20238;-53
2021/06/30 04:47:43;;;;;;;4.00;3.60;;;16.20;99.90;;;;;;5076486;28;20190;-54
2021/06/30 04:50:09;;;;;;;4.80;3.80;;;16.30;99.90;;;;;;5076700;28;20658;-56
2021/06/30 04:52:35;;;;;;;6.83;4.03;;;16.20;99.90;;;;;;5076447;28;20175;-53
2021/06/30 04:55:00;;;;;;;3.67;3.10;;;16.20;99.90;;;;;;5076529;28;20190;-60
2021/06/30 04:57:26;;;;;;;3.73;3.43;;;16.20;99.90;;;;;;5076246;28;20202;-56
2021/06/30 04:59:51;;;;;;;3.83;3.47;;;16.30;99.90;;;;;;5076439;28;20189;-61
2021/06/30 05:02:17;;;;;;;3.90;3.27;;;16.40;99.90;;;;;;5074794;28;20198;-59
2021/06/30 05:04:42;;;;;;;4.20;3.80;;;16.50;99.90;;;;;;5076522;28;20573;-55
2021/06/30 05:07:08;;;;;;;4.63;3.77;;;16.50;99.90;;;;;;5076201;28;20609;-61
2021/06/30 05:09:34;;;;;;;5.27;3.53;;;16.40;99.90;;;;;;5076596;28;20175;-59
2021/06/30 05:12:00;;;;;;;4.07;3.67;;;16.50;99.90;;;;;;5075925;28;20206;-59
2021/06/30 05:14:25;;;;;;;6.53;3.90;;;16.40;99.90;;;;;;5076344;28;20213;-60
2021/06/30 05:16:51;;;;;;;4.27;3.70;;;16.30;99.90;;;;;;5073927;28;20557;-53
2021/06/30 05:19:16;;;;;;;4.47;3.40;;;16.40;99.90;;;;;;5072649;28;20290;-58
2021/06/30 05:21:42;;;;;;;5.80;3.80;;;16.40;99.90;;;;;;5073033;28;20206;-51
2021/06/30 05:24:07;;;;;;;4.57;3.80;;;16.30;99.90;;;;;;5074779;28;20174;-57
2021/06/30 05:26:33;;;;;;;4.10;3.70;;;16.40;99.90;;;;;;5075661;28;20179;-59
2021/06/30 05:28:59;;;;;;;4.10;3.70;;;16.50;99.90;;;;;;5074394;28;20689;-60
2021/06/30 05:31:24;;;;;;;3.60;3.30;;;16.50;99.90;;;;;;5067485;28;20647;-54
2021/06/30 05:33:50;;;;;;;3.90;3.50;;;16.70;99.90;;;;;;5075475;28;20188;-58
2021/06/30 05:36:16;;;;;;;4.57;4.17;;;16.80;99.90;;;;;;5069890;28;20570;-54
2021/06/30 05:38:42;;;;;;;5.73;3.87;;;16.70;99.90;;;;;;5074653;28;20230;-58
2021/06/30 05:41:10;;;;;;;5.27;4.10;;;16.70;99.90;;;;;;5070852;28;20206;-57
2021/06/30 05:43:36;;;;;;;4.93;4.53;;;16.70;99.90;;;;;;5065297;28;20175;-52
2021/06/30 05:46:03;;;;;;;4.67;4.27;;;16.80;99.90;;;;;;5072713;28;20186;-58
2021/06/30 05:48:29;;;;;;;4.80;4.30;;;16.90;99.90;;;;;;5074982;28;20197;-53
2021/06/30 05:50:54;;;;;;;4.50;4.10;;;16.80;99.90;;;;;;5069173;28;20466;-55
2021/06/30 05:53:20;;;;;;;4.60;4.03;;;16.60;99.90;;;;;;5055841;28;20596;-59
2021/06/30 05:55:45;;;;;;;4.30;3.90;;;16.50;99.90;;;;;;5068546;28;20185;-54
2021/06/30 05:58:11;;;;;;;4.07;3.67;;;16.40;99.90;;;;;;5074734;28;20207;-54
2021/06/30 06:00:37;;;;;;;4.30;3.90;;;16.40;99.90;;;;;;5068519;28;20230;-55
2021/06/30 06:03:02;;;;;;;5.13;3.33;;;16.60;99.90;;;;;;5054589;28;20192;-57
2021/06/30 06:05:28;;;;;;;4.10;3.60;;;16.70;99.90;;;;;;5054841;28;20506;-49
2021/06/30 06:07:54;;;;;;;4.67;3.43;;;16.80;99.90;;;;;;5055906;28;20200;-52
2021/06/30 06:10:19;;;;;;;4.40;3.20;;;16.90;99.90;;;;;;5054393;28;20209;-54
2021/06/30 06:12:45;;;;;;;5.13;3.10;;;16.90;99.90;;;;;;5058715;28;20210;-50
2021/06/30 06:15:11;;;;;;;2.73;2.47;;;16.80;99.90;;;;;;5074756;28;20209;-53
2021/06/30 06:17:39;;;;;;;3.80;2.60;;;16.80;99.90;;;;;;5064341;28;20203;-52
2021/06/30 06:20:06;;;;;;;4.47;2.80;;;16.90;99.90;;;;;;5066302;28;20198;-54
2021/06/30 06:22:32;;;;;;;4.13;2.80;;;17.00;99.90;;;;;;5071237;28;20181;-51
2021/06/30 06:24:58;;;;;;;2.97;2.60;;;17.10;99.90;;;;;;5053723;28;20175;-53
2021/06/30 06:27:23;;;;;;;2.53;2.33;;;17.20;99.90;;;;;;5059333;28;20193;-49
2021/06/30 06:29:50;;;;;;;2.07;1.87;;;17.20;99.90;;;;;;5055440;28;20236;-51
2021/06/30 06:32:17;;;;;;;2.40;2.20;;;17.20;99.90;;;;;;5054306;28;20237;-51
2021/06/30 06:34:42;;;;;;;3.10;2.00;;;17.20;99.90;;;;;;5054456;28;20223;-55
2021/06/30 06:37:12;;;;;;;2.10;2.00;;;17.20;99.90;;;;;;5053774;28;20191;-56
2021/06/30 06:39:38;;;;;;;3.83;1.60;;;17.20;99.90;;;;;;5054494;28;20535;-50
2021/06/30 06:42:05;;;;;;;1.80;1.50;;;17.20;99.90;;;;;;5054407;28;20216;-49
2021/06/30 06:44:31;;;;;;;2.03;1.83;;;17.20;99.90;;;;;;5054184;28;20167;-51
2021/06/30 06:46:56;;;;;;;3.20;1.67;;;17.20;99.90;;;;;;5053889;28;20200;-55
2021/06/30 06:49:22;;;;;;;2.50;1.50;;;17.20;99.90;;;;;;5054394;28;20168;-55
2021/06/30 06:51:47;;;;;;;1.67;1.50;;;17.20;99.90;;;;;;5054145;28;20231;-55
2021/06/30 06:54:13;;;;;;;3.07;2.30;;;17.20;99.90;;;;;;5054324;28;20173;-52
2021/06/30 06:56:38;;;;;;;2.37;1.97;;;17.30;99.90;;;;;;5054267;28;20526;-50
2021/06/30 06:59:04;;;;;;;1.83;1.40;;;17.30;99.90;;;;;;5054349;28;20199;-50
2021/06/30 07:01:29;;;;;;;2.27;1.70;;;17.40;99.90;;;;;;5053923;28;20212;-50
2021/06/30 07:03:55;;;;;;;2.90;1.57;;;17.30;99.90;;;;;;5051704;28;20661;-50
2021/06/30 07:06:21;;;;;;;1.10;1.10;;;17.60;99.90;;;;;;5052822;28;20605;-50
2021/06/30 07:08:46;;;;;;;1.73;1.20;;;17.70;99.90;;;;;;5053733;28;20588;-54
2021/06/30 07:11:12;;;;;;;1.83;1.20;;;17.60;99.90;;;;;;5060320;28;20496;-51
2021/06/30 07:13:39;;;;;;;2.23;1.20;;;17.80;99.90;;;;;;5072839;28;20166;-51
2021/06/30 07:16:06;;;;;;;4.40;1.20;;;17.80;99.90;;;;;;5073433;28;20657;-50
2021/06/30 07:18:33;;;;;;;1.87;1.00;;;17.80;99.90;;;;;;5073267;28;20186;-51
2021/06/30 07:21:01;;;;;;;0.90;0.90;;;18.00;99.90;;;;;;5072980;28;20264;-52
2021/06/30 07:23:27;;;;;;;1.97;1.00;;;18.20;99.90;;;;;;5073324;28;20530;-53
2021/06/30 07:25:52;;;;;;;2.00;1.20;;;18.40;99.90;;;;;;5073757;28;20626;-57
2021/06/30 07:28:18;;;;;;;0.90;0.90;;;18.50;99.90;;;;;;5073772;28;20190;-53
2021/06/30 07:30:44;;;;;;;0.90;0.90;;;18.60;99.90;;;;;;5073575;28;20171;-54
2021/06/30 07:33:10;;;;;;;0.60;0.60;;;18.80;99.90;;;;;;5073285;28;20185;-51
2021/06/30 07:35:35;;;;;;;2.07;0.80;;;18.80;99.90;;;;;;5071872;28;20190;-50
2021/06/30 07:38:01;;;;;;;0.57;0.53;;;18.80;99.90;;;;;;5073715;28;20190;-56
2021/06/30 07:40:26;;;;;;;0.90;0.70;;;18.90;99.90;;;;;;5073920;28;20233;-54
2021/06/30 07:42:52;;;;;;;1.00;0.90;;;19.00;99.90;;;;;;5077239;28;20655;-55
2021/06/30 07:45:18;;;;;;;0.80;0.80;;;19.10;99.90;;;;;;5077779;28;20250;-55
2021/06/30 07:47:43;;;;;;;0.70;0.70;;;18.70;99.90;;;;;;5077207;28;20748;-50
2021/06/30 07:50:11;;;;;;;1.93;0.80;;;18.30;99.90;;;;;;5077232;28;20174;-49
2021/06/30 07:52:36;;;;;;;0.60;0.57;;;18.20;99.90;;;;;;5076276;28;20244;-50
2021/06/30 07:55:03;;;;;;;0.70;0.70;;;18.20;99.90;;;;;;5076266;28;20174;-54
2021/06/30 07:57:29;;;;;;;1.50;0.87;;;18.40;99.90;;;;;;5076832;28;20207;-56
2021/06/30 07:59:54;;;;;;;0.73;0.70;;;18.60;99.90;;;;;;5075656;28;20289;-50
2021/06/30 08:02:20;;;;;;;0.70;0.70;;;18.60;99.90;;;;;;5076958;28;20201;-55
2021/06/30 08:04:45;;;;;;;2.83;0.80;;;18.30;99.90;;;;;;5077245;28;20177;-50
2021/06/30 08:07:11;;;;;;;1.67;0.70;;;18.00;99.90;;;;;;5077065;28;20194;-51
2021/06/30 08:09:37;;;;;;;0.73;0.70;;;17.90;99.90;;;;;;5077079;28;20175;-51
2021/06/30 08:12:05;;;;;;;2.03;0.70;;;18.50;99.90;;;;;;5076262;28;20182;-49
2021/06/30 08:14:32;;;;;;;2.87;0.70;;;18.00;99.90;;;;;;5077436;28;20197;-51
2021/06/30 08:16:58;;;;;;;2.83;0.80;;;18.30;99.90;;;;;;5077554;28;20191;-56
2021/06/30 08:19:23;;;;;;;2.43;0.80;;;18.60;99.90;;;;;;5077150;28;20179;-56
2021/06/30 08:21:49;;;;;;;1.47;0.73;;;18.70;99.90;;;;;;5076982;28;20202;-51
2021/06/30 08:24:15;;;;;;;0.47;0.47;;;18.70;99.90;;;;;;5075942;28;20186;-51
2021/06/30 08:26:42;;;;;;;1.57;0.50;;;18.80;99.90;;;;;;5077184;28;20184;-49
2021/06/30 08:29:07;;;;;;;2.53;0.70;;;18.70;99.90;;;;;;5077199;28;20174;-56
2021/06/30 08:31:33;;;;;;;2.03;0.63;;;18.80;99.90;;;;;;5077266;28;20174;-53
2021/06/30 08:33:58;;;;;;;0.43;0.43;;;18.80;99.90;;;;;;5077498;28;20182;-51
2021/06/30 08:36:24;;;;;;;1.13;0.67;;;19.00;99.90;;;;;;5077304;28;20190;-56
2021/06/30 08:38:49;;;;;;;0.67;0.40;;;19.00;99.90;;;;;;5076891;28;20186;-51
2021/06/30 08:41:17;;;;;;;0.60;0.50;;;19.00;99.90;;;;;;5076843;28;20207;-52
2021/06/30 08:43:43;;;;;;;0.57;0.57;;;19.00;99.90;;;;;;5076985;28;20624;-52
2021/06/30 08:46:09;;;;;;;1.20;0.50;;;18.90;99.90;;;;;;5077225;28;20170;-50
2021/06/30 08:48:37;;;;;;;0.53;0.53;;;18.40;99.90;;;;;;5077169;28;20578;-54
2021/06/30 08:51:04;;;;;;;0.67;0.60;;;18.20;99.90;;;;;;5075496;28;20188;-56
2021/06/30 08:53:31;;;;;;;3.43;0.70;;;18.10;99.90;;;;;;5074141;28;20542;-56
2021/06/30 08:55:57;;;;;;;0.60;0.50;;;18.10;99.90;;;;;;5074439;28;20631;-56
2021/06/30 08:58:22;;;;;;;0.30;0.30;;;18.20;99.90;;;;;;5074966;28;20843;-53
2021/06/30 09:00:48;;;;;;;0.40;0.40;;;18.30;99.90;;;;;;5073910;28;20769;-51
2021/06/30 09:03:16;;;;;;;0.80;0.40;;;18.30;99.90;;;;;;5074684;28;20636;-52
2021/06/30 09:08:43;;;;;;;1.17;0.50;;;18.30;99.90;;;;;;5073750;28;20202;-53
2021/06/30 09:11:22;;;;;;;0.33;0.30;;;18.40;99.90;;;;;;5056319;28;20267;-51
2021/06/30 09:13:50;;;;;;;0.60;0.60;;;18.70;99.90;;;;;;5076081;28;20186;-49
2021/06/30 09:16:15;;;;;;;0.70;0.30;;;19.00;99.90;;;;;;5076109;28;20615;-51
2021/06/30 09:18:42;;;;;;;0.90;0.30;;;19.30;99.90;;;;;;5076103;28;20202;-50
2021/06/30 09:21:29;;;;;;;0.20;0.20;;;19.30;99.90;;;;;;5076094;28;20557;-50
2021/06/30 09:24:11;;;;;;;1.43;0.20;;;19.30;99.90;;;;;;5075950;28;20683;-55
2021/06/30 09:26:51;;;;;;;0.40;0.40;;;19.60;99.90;;;;;;5076073;28;20175;-57
2021/06/30 09:29:18;;;;;;;0.40;0.23;;;19.70;99.90;;;;;;5075997;28;20614;-50
2021/06/30 09:31:46;;;;;;;0.40;0.30;;;19.70;99.90;;;;;;5075584;28;20654;-50
2021/06/30 09:34:12;;;;;;;0.30;0.30;;;19.40;99.90;;;;;;5075731;28;20209;-50
2021/06/30 09:36:58;;;;;;;0.90;0.23;;;19.50;99.90;;;;;;5075554;28;20531;-51
2021/06/30 09:39:24;;;;;;;1.27;0.20;;;19.40;99.90;;;;;;5072581;28;20660;-53
2021/06/30 09:42:10;;;;;;;0.20;0.20;;;19.40;99.90;;;;;;5074740;28;20256;-52
2021/06/30 09:44:37;;;;;;;1.70;0.30;;;19.60;99.90;;;;;;5073734;28;20186;-54
2021/06/30 09:47:04;;;;;;;0.80;0.30;;;19.80;99.90;;;;;;5076159;28;20199;-51
2021/06/30 09:49:31;;;;;;;1.27;0.30;;;19.80;99.90;;;;;;5075496;28;20197;-52
2021/06/30 09:52:05;;;;;;;0.37;0.30;;;20.00;99.90;;;;;;5074890;28;20178;-55
2021/06/30 09:54:32;;;;;;;1.37;0.40;;;20.10;99.90;;;;;;5072354;28;20207;-55
2021/06/30 09:57:02;;;;;;;0.57;0.40;;;19.90;99.90;;;;;;5074751;28;20205;-52
2021/06/30 09:59:36;;;;;;;0.40;0.30;;;19.70;99.90;;;;;;5074486;28;20295;-54
2021/06/30 10:02:08;;;;;;;0.77;0.22;;;19.70;99.90;;;;;;5072559;28;20204;-54
2021/06/30 10:04:36;;;;;;;0.67;0.27;;;19.90;99.90;;;;;;5074857;28;20178;-50
2021/06/30 10:07:13;;;;;;;1.13;0.30;;;19.90;99.90;;;;;;5073031;28;20283;-50
2021/06/30 10:10:00;;;;;;;0.37;0.30;;;19.70;99.90;;;;;;5074806;28;20175;-51
2021/06/30 10:12:28;;;;;;;1.03;0.37;;;19.70;99.90;;;;;;5074214;28;20261;-50
2021/06/30 10:14:54;;;;;;;0.93;0.30;;;20.00;99.90;;;;;;5073187;28;20220;-51
2021/06/30 10:17:21;;;;;;;0.37;0.30;;;20.30;99.90;;;;;;5073968;28;20245;-57
2021/06/30 10:19:48;;;;;;;0.87;0.30;;;20.00;99.90;;;;;;5074217;28;20190;-53
2021/06/30 10:22:14;;;;;;;0.27;0.20;;;20.10;99.90;;;;;;5074106;28;20170;-52
2021/06/30 10:24:41;;;;;;;0.30;0.30;;;20.10;99.90;;;;;;5073960;28;20252;-50
2021/06/30 10:27:08;;;;;;;0.20;0.20;;;20.00;99.90;;;;;;5072841;28;20182;-51
2021/06/30 10:29:37;;;;;;;0.25;0.25;;;20.10;99.90;;;;;;5073189;28;20168;-55
2021/06/30 10:32:05;;;;;;;0.20;0.20;;;20.10;99.90;;;;;;5067003;28;20171;-55
2021/06/30 10:34:36;;;;;;;0.22;0.22;;;20.20;99.90;;;;;;5067853;28;20632;-55
2021/06/30 10:37:04;;;;;;;0.10;0.10;;;20.20;99.90;;;;;;5065662;28;20229;-53
2021/06/30 10:39:36;;;;;;;1.10;0.40;;;20.30;99.90;;;;;;5068081;28;20646;-53
2021/06/30 10:42:37;;;;;;;0.43;0.20;;;20.50;99.90;;;;;;5067884;28;20198;-53
2021/06/30 10:45:11;;;;;;;1.20;0.30;;;20.60;99.90;;;;;;5067334;28;20175;-54
2021/06/30 10:47:45;;;;;;;0.30;0.30;;;20.90;99.90;;;;;;5066325;28;20273;-52
2021/06/30 10:50:19;;;;;;;0.60;0.27;;;20.70;99.90;;;;;;5067723;28;20179;-57
2021/06/30 10:52:47;;;;;;;0.20;0.20;;;20.60;99.90;;;;;;5062958;28;20539;-51
2021/06/30 10:55:37;;;;;;;1.35;0.25;;;20.80;99.90;;;;;;5066963;28;20176;-51
2021/06/30 10:58:12;;;;;;;0.38;0.20;;;21.00;99.90;;;;;;5069305;28;20211;-50
2021/06/30 11:00:44;;;;;;;0.38;0.30;;;21.00;99.90;;;;;;5070124;28;20196;-50
2021/06/30 11:03:24;;;;;;;0.75;0.30;;;21.00;99.90;;;;;;5069763;28;20184;-55
2021/06/30 11:05:51;;;;;;;2.05;0.32;;;21.00;99.90;;;;;;5068319;28;20652;-55
2021/06/30 11:08:45;;;;;;;0.80;0.13;;;20.80;99.90;;;;;;5069496;28;20199;-56
2021/06/30 11:11:13;;;;;;;0.20;0.20;;;20.50;99.90;;;;;;5072782;28;20186;-51
2021/06/30 11:13:53;;;;;;;0.28;0.28;;;20.50;99.90;;;;;;5073302;28;20675;-53
2021/06/30 11:16:37;;;;;;;0.45;0.30;;;20.60;99.90;;;;;;5070464;28;20176;-50
2021/06/30 11:19:07;;;;;;;4.53;0.30;;;20.70;99.90;;;;;;5071637;28;20167;-50
2021/06/30 11:21:54;;;;;;;1.00;0.30;;;20.80;99.90;;;;;;5066128;28;20200;-51
2021/06/30 11:27:11;;;;;;;0.10;0.10;;;21.20;99.90;;;;;;5072514;28;20201;-54
2021/06/30 11:29:55;;;;;;;0.73;0.20;;;21.30;99.90;;;;;;5072162;28;20206;-50
2021/06/30 11:32:36;;;;;;;0.55;0.20;;;21.20;99.90;;;;;;5070083;28;20180;-54
2021/06/30 11:35:04;;;;;;;1.27;0.28;;;21.10;99.90;;;;;;5071180;28;20177;-53
2021/06/30 11:37:30;;;;;;;0.30;0.20;;;20.70;99.90;;;;;;5072881;28;20207;-56
2021/06/30 11:39:58;;;;;;;2.17;0.35;;;20.50;99.90;;;;;;5072947;28;20239;-57
2021/06/30 11:42:38;;;;;;;0.17;0.17;;;20.60;99.90;;;;;;5072919;28;20169;-57
2021/06/30 11:45:23;;;;;;;0.28;0.20;;;21.00;99.90;;;;;;5073154;28;20195;-51
2021/06/30 11:47:51;;;;;;;0.30;0.20;;;21.30;99.90;;;;;;5072982;28;20275;-50
2021/06/30 11:50:18;;;;;;;0.82;0.28;;;21.20;99.90;;;;;;5070527;28;20626;-56
2021/06/30 11:52:49;;;;;;;0.73;0.20;;;21.20;99.90;;;;;;5073278;28;20523;-50
2021/06/30 11:55:16;;;;;;;0.85;0.30;;;21.00;99.90;;;;;;5072977;28;20174;-55
2021/06/30 11:57:57;;;;;;;0.22;0.10;;;21.10;99.90;;;;;;5070248;28;20669;-54
2021/06/30 12:00:23;;;;;;;0.20;0.20;;;21.30;99.90;;;;;;5070506;28;20654;-50
2021/06/30 12:02:52;;;;;;;0.30;0.20;;;21.40;99.90;;;;;;5073307;28;20185;-56
2021/06/30 12:05:19;;;;;;;0.25;0.15;;;21.60;99.90;;;;;;5073697;28;20170;-50
2021/06/30 12:07:46;;;;;;;0.40;0.20;;;21.70;99.90;;;;;;5073526;28;20190;-52
2021/06/30 12:10:12;;;;;;;0.30;0.20;;;22.00;99.90;;;;;;5066690;28;20202;-53
2021/06/30 12:12:39;;;;;;;0.22;0.22;;;22.00;99.90;;;;;;5068444;28;20650;-57
2021/06/30 12:15:09;;;;;;;0.20;0.20;;;21.80;99.90;;;;;;5070536;28;20198;-56
2021/06/30 12:17:36;;;;;;;0.30;0.28;;;21.80;99.90;;;;;;5073006;28;20561;-51
2021/06/30 12:20:05;;;;;;;0.20;0.10;;;21.50;99.90;;;;;;5072557;28;20530;-53
2021/06/30 12:22:36;;;;;;;0.38;0.30;;;21.30;99.90;;;;;;5073420;28;20161;-51
2021/06/30 12:25:24;;;;;;;0.10;0.10;;;21.10;99.90;;;;;;5072959;28;20236;-52
2021/06/30 12:27:55;;;;;;;1.67;0.40;;;21.00;99.90;;;;;;5075312;28;20212;-53
2021/06/30 12:30:24;;;;;;;1.33;0.40;;;20.80;99.90;;;;;;5076816;28;20636;-51
2021/06/30 12:32:56;;;;;;;0.20;0.20;;;20.80;99.90;;;;;;5075972;28;20234;-57
2021/06/30 12:35:47;;;;;;;1.48;0.30;;;20.80;99.90;;;;;;5076436;28;20254;-50
2021/06/30 12:38:23;;;;;;;0.90;0.30;;;21.00;99.90;;;;;;5076576;28;20206;-50
2021/06/30 12:41:02;;;;;;;0.90;0.35;;;21.10;99.90;;;;;;5076548;28;20210;-53
2021/06/30 12:43:27;;;;;;;0.43;0.10;;;20.90;99.90;;;;;;5076639;28;20171;-54
2021/06/30 12:45:54;;;;;;;0.13;0.13;;;20.80;99.90;;;;;;5076371;28;20180;-57
2021/06/30 12:48:21;;;;;;;0.28;0.22;;;20.80;99.90;;;;;;5076346;28;20200;-53
2021/06/30 12:50:49;;;;;;;0.20;0.20;;;20.80;99.90;;;;;;5075504;28;20197;-57
2021/06/30 12:53:22;;;;;;;0.52;0.30;;;20.60;99.90;;;;;;5076090;28;20191;-51
2021/06/30 12:55:57;;;;;;;0.20;0.20;;;20.50;99.90;;;;;;5076734;28;20258;-51
2021/06/30 12:58:36;;;;;;;0.52;0.30;;;20.40;99.90;;;;;;5075399;28;20201;-53